createdAt,value
2022-08-11T00:02:29.707Z,2.30
2022-08-11T00:05:02.423Z,3.90
2022-08-11T00:07:31.323Z,2.67
2022-08-11T00:10:00.340Z,2.67
2022-08-11T00:12:29.018Z,3.17
2022-08-11T00:15:00.578Z,4.20
2022-08-11T00:17:31.789Z,2.30
2022-08-11T00:20:12.715Z,3.77
2022-08-11T00:22:47.598Z,2.03
2022-08-11T00:25:18.780Z,2.10
2022-08-11T00:27:48.029Z,2.67
2022-08-11T00:30:18.056Z,2.03
2022-08-11T00:32:54.866Z,3.23
2022-08-11T00:35:51.790Z,2.90
2022-08-11T00:38:18.242Z,3.80
2022-08-11T00:40:54.147Z,3.13
2022-08-11T00:43:33.419Z,3.17
2022-08-11T00:46:15.232Z,3.33
2022-08-11T00:48:57.155Z,2.80
2022-08-11T00:51:57.592Z,3.00
2022-08-11T00:55:18.078Z,3.60
2022-08-11T00:58:33.425Z,4.20
2022-08-11T01:01:26.395Z,3.60
2022-08-11T01:04:31.253Z,3.70
2022-08-11T01:08:03.008Z,1.90
2022-08-11T01:10:48.673Z,3.30
2022-08-11T01:13:34.301Z,3.47
2022-08-11T01:16:29.113Z,2.17
2022-08-11T01:20:46.601Z,2.10
2022-08-11T01:23:00.480Z,2.87
2022-08-11T01:26:10.789Z,2.93
2022-08-11T01:29:19.948Z,2.33
2022-08-11T01:32:17.040Z,3.17
2022-08-11T01:35:18.707Z,4.87
2022-08-11T01:38:24.363Z,3.77
2022-08-11T01:41:50.614Z,2.73
2022-08-11T01:44:59.581Z,5.03
2022-08-11T01:47:54.395Z,2.27
2022-08-11T01:50:41.008Z,3.73
2022-08-11T01:53:23.075Z,2.77
2022-08-11T01:55:58.908Z,2.63
2022-08-11T01:58:47.773Z,2.87
2022-08-11T02:01:40.833Z,2.70
2022-08-11T02:04:20.038Z,2.77
2022-08-11T02:06:57.106Z,3.53
2022-08-11T02:09:49.589Z,2.73
2022-08-11T02:12:36.303Z,2.90
2022-08-11T02:15:15.221Z,3.40
2022-08-11T02:17:52.648Z,2.67
2022-08-11T02:20:45.030Z,2.70
2022-08-11T02:24:06.693Z,2.50
2022-08-11T02:26:37.072Z,2.73
2022-08-11T02:29:14.549Z,2.80
2022-08-11T02:32:28.393Z,2.33
2022-08-11T02:35:05.967Z,3.67
2022-08-11T02:37:47.563Z,3.80
2022-08-11T02:40:35.442Z,4.47
2022-08-11T02:43:20.143Z,2.57
2022-08-11T02:45:55.599Z,2.00
2022-08-11T02:48:55.487Z,3.97
2022-08-11T02:51:34.230Z,2.30
2022-08-11T02:54:12.744Z,5.23
2022-08-11T02:56:58.534Z,3.60
2022-08-11T02:59:52.306Z,3.93
2022-08-11T03:02:45.939Z,2.93
2022-08-11T03:05:27.049Z,2.57
2022-08-11T03:08:14.992Z,2.77
2022-08-11T03:11:21.524Z,2.23
2022-08-11T03:14:18.200Z,3.37
2022-08-11T03:16:54.189Z,2.67
2022-08-11T03:19:32.349Z,3.70
2022-08-11T03:22:14.434Z,3.17
2022-08-11T03:24:58.962Z,2.97
2022-08-11T03:27:43.941Z,2.93
2022-08-11T03:30:17.212Z,3.60
2022-08-11T03:33:15.717Z,3.00
2022-08-11T03:35:50.497Z,3.47
2022-08-11T03:38:30.597Z,3.07
2022-08-11T03:42:03.145Z,2.70
2022-08-11T03:44:45.149Z,4.57
2022-08-11T03:47:52.638Z,2.93
2022-08-11T03:50:33.563Z,4.23
2022-08-11T03:53:11.667Z,3.70
2022-08-11T03:56:14.079Z,2.80
2022-08-11T03:59:17.192Z,2.57
2022-08-11T04:02:20.913Z,3.57
2022-08-11T04:05:28.263Z,3.03
2022-08-11T04:08:34.271Z,2.77
2022-08-11T04:11:25.250Z,2.93
2022-08-11T04:14:30.760Z,3.47
2022-08-11T04:17:22.700Z,2.53
2022-08-11T04:20:18.882Z,3.30
2022-08-11T04:23:03.608Z,3.27
2022-08-11T04:25:58.518Z,4.90
2022-08-11T04:28:50.827Z,3.60
2022-08-11T04:31:52.464Z,3.10
2022-08-11T04:34:56.181Z,5.90
2022-08-11T04:38:06.624Z,3.80
2022-08-11T04:41:08.820Z,4.00
2022-08-11T04:44:07.682Z,3.07
2022-08-11T04:47:06.614Z,4.23
2022-08-11T04:50:19.685Z,5.17
2022-08-11T04:53:38.203Z,6.07
2022-08-11T04:56:35.423Z,2.37
2022-08-11T04:59:47.512Z,4.03
2022-08-11T05:03:01.237Z,4.03
2022-08-11T05:05:56.322Z,2.67
2022-08-11T05:09:01.308Z,4.90
2022-08-11T05:11:46.754Z,6.23
2022-08-11T05:14:52.255Z,4.63
2022-08-11T05:17:52.975Z,4.87
2022-08-11T05:20:40.051Z,8.17
2022-08-11T05:23:27.948Z,5.33
2022-08-11T05:26:47.144Z,5.40
2022-08-11T05:29:24.412Z,4.20
2022-08-11T05:32:20.753Z,5.00
2022-08-11T05:34:54.566Z,2.97
2022-08-11T05:37:32.929Z,5.63
2022-08-11T05:40:25.325Z,2.90
2022-08-11T05:43:15.787Z,2.87
2022-08-11T05:46:06.217Z,2.93
2022-08-11T05:48:56.156Z,6.13
2022-08-11T05:51:55.265Z,2.40
2022-08-11T05:54:46.729Z,2.40
2022-08-11T05:57:50.631Z,3.33
2022-08-11T06:00:11.823Z,3.87
2022-08-11T06:02:44.563Z,5.50
2022-08-11T06:05:15.126Z,5.43
2022-08-11T06:07:48.912Z,4.17
2022-08-11T06:10:28.583Z,5.50
2022-08-11T06:12:58.232Z,3.93
2022-08-11T06:15:27.449Z,3.80
2022-08-11T06:17:56.832Z,3.30
2022-08-11T06:20:26.937Z,2.50
2022-08-11T06:23:00.388Z,2.63
2022-08-11T06:25:33.291Z,1.93
2022-08-11T06:28:01.924Z,5.30
2022-08-11T06:30:41.954Z,4.00
2022-08-11T06:33:11.948Z,4.00
2022-08-11T06:36:01.221Z,4.97
2022-08-11T06:38:40.708Z,1.90
2022-08-11T06:41:34.354Z,7.90
2022-08-11T06:44:16.296Z,3.00
2022-08-11T06:46:47.724Z,3.23
2022-08-11T06:49:36.543Z,2.27
2022-08-11T06:52:12.764Z,3.10
2022-08-11T06:55:04.255Z,3.67
2022-08-11T06:57:50.226Z,2.95
2022-08-11T07:00:33.316Z,1.65
2022-08-11T07:03:08.320Z,2.28
2022-08-11T07:05:49.027Z,2.35
2022-08-11T07:08:53.546Z,1.85
2022-08-11T07:12:23.449Z,2.60
2022-08-11T07:15:11.517Z,2.28
2022-08-11T07:17:49.182Z,2.15
2022-08-11T07:20:35.810Z,4.57
2022-08-11T07:23:23.232Z,2.10
2022-08-11T07:26:12.449Z,2.13
2022-08-11T07:28:59.510Z,1.50
2022-08-11T07:31:37.062Z,1.73
2022-08-11T07:34:19.040Z,2.33
2022-08-11T07:36:52.373Z,1.48
2022-08-11T07:39:23.371Z,1.35
2022-08-11T07:41:58.165Z,1.48
2022-08-11T07:44:34.317Z,3.47
2022-08-11T07:47:21.272Z,2.33
2022-08-11T07:50:12.282Z,3.05
2022-08-11T07:52:40.975Z,2.67
2022-08-11T07:55:13.990Z,4.57
2022-08-11T07:58:16.035Z,1.40
2022-08-11T08:01:10.640Z,2.78
2022-08-11T08:04:08.427Z,1.42
2022-08-11T08:06:56.232Z,3.42
2022-08-11T08:09:43.274Z,2.25
2022-08-11T08:12:30.403Z,4.05
2022-08-11T08:15:17.693Z,2.08
2022-08-11T08:18:09.669Z,2.53
2022-08-11T08:20:49.697Z,3.30
2022-08-11T08:23:32.838Z,1.63
2022-08-11T08:26:04.350Z,1.27
2022-08-11T08:28:33.737Z,2.40
2022-08-11T08:31:02.784Z,2.38
2022-08-11T08:33:32.128Z,1.67
2022-08-11T08:36:12.774Z,2.47
2022-08-11T08:38:42.424Z,3.72
2022-08-11T08:41:13.282Z,4.32
2022-08-11T08:43:48.515Z,1.58
2022-08-11T08:46:34.618Z,2.17
2022-08-11T08:49:05.092Z,2.58
2022-08-11T08:52:02.412Z,3.63
2022-08-11T08:54:35.516Z,2.85
2022-08-11T08:57:05.391Z,2.55
2022-08-11T08:59:48.511Z,3.50
2022-08-11T09:02:34.736Z,2.25
2022-08-11T09:05:04.048Z,3.40
2022-08-11T09:07:39.371Z,4.93
2022-08-11T09:10:10.029Z,1.35
2022-08-11T09:12:41.396Z,4.45
2022-08-11T09:15:12.016Z,1.10
2022-08-11T09:17:45.903Z,2.55
2022-08-11T09:20:18.561Z,1.10
2022-08-11T09:26:14.962Z,1.50
2022-08-11T09:28:44.890Z,4.13
2022-08-11T09:31:14.042Z,5.93
2022-08-11T09:33:47.654Z,3.53
2022-08-11T09:38:52.151Z,1.45
2022-08-11T09:41:20.369Z,4.90
2022-08-11T09:44:12.152Z,6.60
2022-08-11T09:46:40.994Z,3.65
2022-08-11T09:49:12.448Z,1.95
2022-08-11T09:51:56.518Z,1.80
2022-08-11T09:54:34.174Z,2.72
2022-08-11T09:57:20.042Z,1.35
2022-08-11T09:59:50.363Z,1.27
2022-08-11T10:02:26.894Z,1.95
2022-08-11T10:05:18.365Z,2.45
2022-08-11T10:07:50.401Z,2.90
2022-08-11T10:10:22.874Z,2.20
2022-08-11T10:12:56.329Z,1.25
2022-08-11T10:15:38.330Z,0.77
2022-08-11T10:18:27.384Z,1.65
2022-08-11T10:21:00.796Z,1.73
2022-08-11T10:24:00.446Z,2.38
2022-08-11T10:26:54.568Z,1.95
2022-08-11T10:29:45.321Z,1.67
2022-08-11T10:32:57.315Z,1.75
2022-08-11T10:35:27.390Z,0.73
2022-08-11T10:38:08.587Z,0.70
2022-08-11T10:40:40.650Z,1.02
2022-08-11T10:43:14.330Z,0.93
2022-08-11T10:46:05.508Z,1.05
2022-08-11T10:48:39.274Z,2.13
2022-08-11T10:51:14.776Z,1.35
2022-08-11T10:54:03.538Z,0.70
2022-08-11T10:56:54.847Z,1.33
2022-08-11T10:59:25.605Z,2.22
2022-08-11T11:01:55.445Z,1.10
2022-08-11T11:04:34.448Z,0.80
2022-08-11T11:07:06.871Z,0.82
2022-08-11T11:09:40.886Z,2.13
2022-08-11T11:12:32.175Z,2.63
2022-08-11T11:15:21.777Z,0.70
2022-08-11T11:18:01.538Z,1.02
2022-08-11T11:20:38.716Z,0.70
2022-08-11T11:23:16.694Z,0.65
2022-08-11T11:26:14.852Z,0.75
2022-08-11T11:29:03.271Z,1.73
2022-08-11T11:31:47.162Z,1.40
2022-08-11T11:34:24.656Z,1.65
2022-08-11T11:36:56.692Z,0.95
2022-08-11T11:39:27.494Z,2.65
2022-08-11T11:41:57.739Z,4.15
2022-08-11T11:44:27.079Z,1.05
2022-08-11T11:46:57.093Z,2.17
2022-08-11T11:49:29.029Z,1.10
2022-08-11T11:51:58.859Z,1.42
2022-08-11T11:54:28.607Z,3.08
2022-08-11T11:56:57.778Z,0.95
2022-08-11T11:59:46.713Z,0.45
2022-08-11T12:02:17.478Z,2.25
2022-08-11T12:04:51.251Z,1.15
2022-08-11T12:07:36.955Z,0.93
2022-08-11T12:10:06.230Z,1.55
2022-08-11T12:12:52.069Z,2.58
2022-08-11T12:16:32.298Z,4.00
2022-08-11T12:18:12.152Z,5.00
2022-08-11T12:20:40.570Z,2.40
2022-08-11T12:23:26.614Z,1.75
2022-08-11T12:26:27.926Z,1.75
2022-08-11T12:28:59.746Z,3.33
2022-08-11T12:31:31.834Z,6.03
2022-08-11T12:34:06.290Z,1.95
2022-08-11T12:36:37.801Z,3.85
2022-08-11T12:39:23.259Z,3.33
2022-08-11T12:42:10.541Z,5.13
2022-08-11T12:44:56.518Z,2.10
2022-08-11T12:47:25.111Z,1.02
2022-08-11T12:50:23.023Z,1.25
2022-08-11T12:52:56.955Z,22.98
2022-08-11T12:55:40.038Z,21.67
2022-08-11T12:58:18.601Z,17.65
2022-08-11T13:01:05.051Z,9.18
2022-08-11T13:03:56.736Z,8.32
2022-08-11T13:06:27.874Z,10.23
2022-08-11T13:09:01.525Z,5.70
2022-08-11T13:11:56.355Z,4.68
2022-08-11T13:14:27.089Z,4.70
2022-08-11T13:17:12.819Z,4.20
2022-08-11T13:19:48.908Z,2.45
2022-08-11T13:22:21.241Z,2.08
2022-08-11T13:24:50.144Z,3.28
2022-08-11T13:27:20.806Z,2.28
2022-08-11T13:29:50.291Z,3.63
2022-08-11T13:32:21.231Z,3.28
2022-08-11T13:34:49.891Z,4.20
2022-08-11T13:37:20.992Z,3.35
2022-08-11T13:40:11.142Z,2.22
2022-08-11T13:42:40.558Z,3.30
2022-08-11T13:45:10.453Z,2.97
2022-08-11T13:47:39.935Z,3.03
2022-08-11T13:50:13.511Z,1.85
2022-08-11T13:52:43.651Z,2.03
2022-08-11T13:55:51.071Z,4.30
2022-08-11T13:58:20.532Z,2.75
2022-08-11T14:01:00.351Z,2.37
2022-08-11T14:04:28.888Z,2.67
2022-08-11T14:06:20.518Z,3.40
2022-08-11T14:08:53.833Z,2.30
2022-08-11T14:12:21.552Z,1.60
2022-08-11T14:14:35.362Z,2.43
2022-08-11T14:17:08.975Z,3.00
2022-08-11T14:19:43.296Z,2.47
2022-08-11T14:22:13.513Z,4.77
2022-08-11T14:24:49.409Z,3.43
2022-08-11T14:28:30.424Z,1.83
2022-08-11T14:30:28.882Z,1.90
2022-08-11T14:32:58.871Z,1.27
2022-08-11T14:35:29.247Z,3.07
2022-08-11T14:38:00.102Z,2.73
2022-08-11T14:40:52.520Z,1.77
2022-08-11T14:44:10.489Z,1.30
2022-08-11T14:46:51.596Z,2.20
2022-08-11T14:49:20.663Z,2.20
2022-08-11T14:51:50.278Z,2.43
2022-08-11T14:54:36.263Z,3.23
2022-08-11T14:57:06.035Z,1.93
2022-08-11T14:59:34.618Z,3.97
2022-08-11T15:02:21.198Z,1.37
2022-08-11T15:04:49.680Z,1.30
2022-08-11T15:07:18.001Z,3.13
2022-08-11T15:10:11.821Z,3.00
2022-08-11T15:12:40.185Z,2.00
2022-08-11T15:15:27.732Z,2.63
2022-08-11T15:17:57.635Z,1.17
2022-08-11T15:20:46.966Z,2.03
2022-08-11T15:23:33.025Z,1.60
2022-08-11T15:26:05.544Z,1.50
2022-08-11T15:29:10.678Z,1.10
2022-08-11T15:31:57.175Z,1.50
2022-08-11T15:34:46.657Z,0.60
2022-08-11T15:37:31.973Z,1.90
2022-08-11T15:40:31.328Z,0.80
2022-08-11T15:43:27.061Z,2.17
2022-08-11T15:46:02.180Z,2.00
2022-08-11T15:48:42.682Z,2.00
2022-08-11T15:51:13.490Z,1.00
2022-08-11T15:53:44.346Z,1.77
2022-08-11T15:56:27.406Z,0.80
2022-08-11T15:59:41.207Z,2.23
2022-08-11T16:02:25.049Z,1.70
2022-08-11T16:04:54.988Z,0.87
2022-08-11T16:07:27.293Z,0.83
2022-08-11T16:10:00.844Z,5.80
2022-08-11T16:12:33.068Z,2.27
2022-08-11T16:15:28.830Z,1.40
2022-08-11T16:18:02.806Z,1.37
2022-08-11T16:20:32.781Z,3.27
2022-08-11T16:23:04.134Z,1.90
2022-08-11T16:26:30.278Z,1.70
2022-08-11T16:28:25.565Z,1.93
2022-08-11T16:30:56.059Z,1.80
2022-08-11T16:33:50.022Z,1.33
2022-08-11T16:36:34.482Z,4.57
2022-08-11T16:39:03.376Z,1.77
2022-08-11T16:41:51.825Z,3.23
2022-08-11T16:44:39.918Z,4.30
2022-08-11T16:47:11.731Z,5.40
2022-08-11T16:49:52.397Z,3.17
2022-08-11T16:52:21.995Z,1.70
2022-08-11T16:54:50.530Z,1.90
2022-08-11T16:57:42.391Z,1.33
2022-08-11T17:00:13.114Z,2.47
2022-08-11T17:03:03.433Z,2.53
2022-08-11T17:05:54.322Z,2.13
2022-08-11T17:08:49.856Z,1.77
2022-08-11T17:11:46.110Z,1.43
2022-08-11T17:14:17.327Z,1.63
2022-08-11T17:17:04.842Z,1.30
2022-08-11T17:20:43.087Z,3.87
2022-08-11T17:22:43.941Z,1.10
2022-08-11T17:25:12.756Z,2.90
2022-08-11T17:27:43.213Z,1.63
2022-08-11T17:30:14.038Z,1.77
2022-08-11T17:33:02.014Z,1.90
2022-08-11T17:35:34.293Z,1.67
2022-08-11T17:38:07.028Z,1.77
2022-08-11T17:40:38.745Z,1.50
2022-08-11T17:43:27.336Z,1.53
2022-08-11T17:46:14.727Z,1.60
2022-08-11T17:48:47.261Z,1.40
2022-08-11T17:51:34.643Z,1.63
2022-08-11T17:54:24.257Z,1.20
2022-08-11T17:57:21.111Z,2.70
2022-08-11T17:59:56.821Z,1.33
2022-08-11T18:02:46.740Z,1.00
2022-08-11T18:05:18.209Z,1.30
2022-08-11T18:08:05.110Z,1.40
2022-08-11T18:10:54.157Z,1.50
2022-08-11T18:13:43.978Z,1.97
2022-08-11T18:16:29.998Z,1.43
2022-08-11T18:19:15.412Z,1.17
2022-08-11T18:22:14.543Z,1.80
2022-08-11T18:25:06.303Z,1.10
2022-08-11T18:27:55.531Z,1.67
2022-08-11T18:30:42.466Z,1.43
2022-08-11T18:36:41.228Z,1.80
2022-08-11T18:39:30.259Z,1.70
2022-08-11T18:42:29.016Z,1.77
2022-08-11T18:45:18.673Z,2.00
2022-08-11T18:48:07.099Z,1.47
2022-08-11T18:51:28.124Z,1.33
2022-08-11T18:54:07.717Z,3.03
2022-08-11T18:56:54.169Z,1.40
2022-08-11T18:59:43.054Z,1.60
2022-08-11T19:02:31.283Z,1.60
2022-08-11T19:05:18.805Z,1.43
2022-08-11T19:08:31.800Z,1.60
2022-08-11T19:11:18.941Z,1.90
2022-08-11T19:14:11.117Z,1.80
2022-08-11T19:16:57.469Z,2.27
2022-08-11T19:19:47.960Z,1.97
2022-08-11T19:22:37.135Z,2.60
2022-08-11T19:25:25.753Z,2.23
2022-08-11T19:28:12.545Z,2.03
2022-08-11T19:30:59.571Z,1.50
2022-08-11T19:34:02.372Z,1.90
2022-08-11T19:36:54.893Z,3.00
2022-08-11T19:39:41.100Z,1.70
2022-08-11T19:42:28.043Z,1.63
2022-08-11T19:45:14.587Z,2.20
2022-08-11T19:48:28.471Z,1.90
2022-08-11T19:51:10.521Z,1.80
2022-08-11T19:53:57.929Z,1.73
2022-08-11T19:56:44.254Z,1.90
2022-08-11T19:59:30.062Z,4.60
2022-08-11T20:02:15.761Z,3.50
2022-08-11T20:05:01.544Z,2.43
2022-08-11T20:07:49.033Z,3.27
2022-08-11T20:10:40.338Z,3.57
2022-08-11T20:13:27.991Z,4.47
2022-08-11T20:16:15.312Z,3.77
2022-08-11T20:19:01.731Z,4.17
2022-08-11T20:21:47.592Z,4.10
2022-08-11T20:24:36.408Z,2.70
2022-08-11T20:27:25.683Z,2.80
2022-08-11T20:30:16.615Z,4.07
2022-08-11T20:33:03.348Z,4.10
2022-08-11T20:35:51.961Z,1.97
2022-08-11T20:38:40.450Z,1.90
2022-08-11T20:41:28.368Z,2.83
2022-08-11T20:44:15.902Z,2.20
2022-08-11T20:47:02.489Z,1.70
2022-08-11T20:49:56.693Z,2.30
2022-08-11T20:52:47.364Z,3.00
2022-08-11T20:59:13.478Z,1.73
2022-08-11T21:04:55.173Z,1.53
2022-08-11T21:07:55.467Z,2.07
2022-08-11T21:10:50.625Z,1.57
2022-08-11T21:13:39.070Z,1.50
2022-08-11T21:16:27.465Z,3.53
2022-08-11T21:20:00.605Z,3.17
2022-08-11T21:22:30.995Z,2.20
2022-08-11T21:25:18.751Z,1.50
2022-08-11T21:28:08.070Z,1.10
2022-08-11T21:30:57.778Z,1.10
2022-08-11T21:33:45.765Z,1.87
2022-08-11T21:36:34.040Z,1.40
2022-08-11T21:39:24.938Z,1.50
2022-08-11T21:42:14.540Z,1.40
2022-08-11T21:45:01.586Z,2.57
2022-08-11T21:47:48.753Z,1.23
2022-08-11T21:50:34.664Z,1.40
2022-08-11T21:53:21.824Z,1.50
2022-08-11T21:56:09.824Z,2.33
2022-08-11T21:58:55.762Z,1.40
2022-08-11T22:01:42.367Z,1.23
2022-08-11T22:04:29.204Z,1.90
2022-08-11T22:07:15.311Z,1.43
2022-08-11T22:10:40.709Z,1.93
2022-08-11T22:13:08.396Z,1.50
2022-08-11T22:15:55.338Z,1.53
2022-08-11T22:18:42.008Z,1.67
2022-08-11T22:22:01.276Z,1.40
2022-08-11T22:24:34.638Z,1.30
2022-08-11T22:27:24.445Z,1.90
2022-08-11T22:30:10.061Z,1.37
2022-08-11T22:32:56.587Z,2.10
2022-08-11T22:35:42.960Z,1.53
2022-08-11T22:38:28.976Z,1.43
2022-08-11T22:41:14.681Z,1.43
2022-08-11T22:44:01.451Z,1.83
2022-08-11T22:46:49.280Z,1.60
2022-08-11T22:49:57.132Z,2.60
2022-08-11T22:52:42.666Z,2.97
2022-08-11T22:55:28.627Z,2.37
2022-08-11T22:58:14.985Z,2.03
2022-08-11T23:01:02.484Z,1.70
2022-08-11T23:03:50.309Z,1.60
2022-08-11T23:06:37.434Z,1.60
2022-08-11T23:09:23.981Z,1.47
2022-08-11T23:12:10.215Z,1.43
2022-08-11T23:14:58.322Z,1.60
2022-08-11T23:17:45.608Z,1.50
2022-08-11T23:20:41.150Z,1.37
2022-08-11T23:23:37.971Z,1.67
2022-08-11T23:26:24.425Z,1.47
2022-08-11T23:29:11.883Z,2.43
2022-08-11T23:31:57.862Z,1.57
2022-08-11T23:35:37.901Z,1.60
2022-08-11T23:37:56.082Z,1.57
2022-08-11T23:40:45.386Z,1.30
2022-08-11T23:43:38.509Z,1.40
2022-08-11T23:46:24.443Z,1.30
2022-08-11T23:49:14.030Z,1.50
2022-08-11T23:52:02.621Z,1.97
2022-08-11T23:54:49.264Z,1.60
2022-08-11T23:57:35.230Z,2.30
